Northfield, New Jersey
Current Conditions -  °F | °C
As of 3:54 AM on Thursday 27 Nov 2014 (Local Time) from KACY Reporting Station
Overcast Overcast  
Wind Chill: 29°   Ceiling: 3000
Heat Index: 36°   Visibility: 10mi
Dew Point: 33°   Wind: 9mph
Humidity: 89%   Direction: 280°W
Pressure: 29.97"   Gusts: NA
Location:  39.37°N, 74.55°W
Report Text: KACY 270854Z 28008KT 10SM OVC030 02/01 A2997 RMK AO2 SLP148 T00220006 53015
Loading
Personal Weather Stations






























Interactive Weather Map New forecast layout! Learn more

10-Day Weather Forecast

Advertisements
Track Severe Weather on mobile